createdAt,value
2017-09-11T00:02:18.972Z,6.63
2017-09-11T00:04:47.062Z,4.83
2017-09-11T00:07:14.603Z,3.27
2017-09-11T00:09:42.159Z,4.43
2017-09-11T00:12:09.761Z,2.87
2017-09-11T00:14:37.305Z,3.93
2017-09-11T00:17:05.183Z,4.83
2017-09-11T00:19:32.731Z,5.33
2017-09-11T00:22:00.330Z,2.23
2017-09-11T00:24:28.699Z,2.13
2017-09-11T00:26:56.255Z,3.00
2017-09-11T00:29:24.931Z,2.43
2017-09-11T00:31:53.279Z,1.90
2017-09-11T00:34:20.866Z,3.47
2017-09-11T00:36:48.462Z,3.23
2017-09-11T00:39:16.023Z,4.27
2017-09-11T00:41:44.087Z,2.40
2017-09-11T00:44:12.411Z,3.30
2017-09-11T00:46:40.206Z,3.90
2017-09-11T00:49:07.786Z,4.90
2017-09-11T00:51:35.364Z,3.40
2017-09-11T00:54:03.374Z,4.57
2017-09-11T00:56:30.925Z,2.30
2017-09-11T00:58:58.498Z,3.73
2017-09-11T01:01:26.094Z,3.67
2017-09-11T01:03:53.618Z,2.57
2017-09-11T01:06:21.481Z,2.53
2017-09-11T01:08:49.064Z,4.90
2017-09-11T01:11:16.622Z,3.70
2017-09-11T01:13:44.218Z,2.33
2017-09-11T01:16:11.771Z,2.57
2017-09-11T01:18:39.792Z,2.47
2017-09-11T01:21:07.494Z,3.97
2017-09-11T01:23:35.849Z,4.00
2017-09-11T01:26:03.481Z,5.73
2017-09-11T01:28:31.043Z,1.63
2017-09-11T01:30:58.916Z,3.13
2017-09-11T01:33:26.503Z,3.50
2017-09-11T01:35:54.079Z,3.13
2017-09-11T01:38:22.438Z,2.03
2017-09-11T01:40:50.015Z,3.10
2017-09-11T01:43:18.051Z,6.20
2017-09-11T01:45:45.625Z,4.57
2017-09-11T01:48:13.168Z,2.90
2017-09-11T01:50:41.425Z,3.13
2017-09-11T01:53:08.974Z,4.20
2017-09-11T01:55:36.968Z,5.40
2017-09-11T01:58:04.515Z,1.90
2017-09-11T02:00:32.554Z,3.27
2017-09-11T02:03:00.631Z,3.63
2017-09-11T02:05:28.214Z,2.70
2017-09-11T02:07:56.083Z,3.23
2017-09-11T02:10:23.862Z,2.00
2017-09-11T02:12:51.674Z,3.30
2017-09-11T02:15:20.069Z,4.17
2017-09-11T02:17:47.647Z,3.87
2017-09-11T02:20:15.830Z,2.30
2017-09-11T02:22:43.434Z,3.30
2017-09-11T02:25:10.999Z,4.77
2017-09-11T02:27:39.646Z,2.23
2017-09-11T02:30:07.366Z,5.60
2017-09-11T02:32:35.326Z,2.60
2017-09-11T02:35:02.883Z,2.83
2017-09-11T02:37:30.423Z,3.40
2017-09-11T02:39:58.052Z,2.20
2017-09-11T02:42:25.612Z,2.57
2017-09-11T02:44:53.486Z,4.63
2017-09-11T02:47:21.022Z,2.40
2017-09-11T02:49:48.574Z,5.73
2017-09-11T02:52:16.167Z,2.80
2017-09-11T02:54:43.708Z,3.40
2017-09-11T02:57:11.583Z,2.83
2017-09-11T02:59:39.123Z,2.90
2017-09-11T03:02:06.679Z,2.73
2017-09-11T03:04:34.262Z,4.70
2017-09-11T03:07:01.840Z,3.23
2017-09-11T03:09:29.893Z,5.70
2017-09-11T03:11:57.445Z,4.47
2017-09-11T03:14:25.015Z,4.67
2017-09-11T03:16:52.631Z,3.73
2017-09-11T03:19:20.296Z,5.93
2017-09-11T03:21:48.202Z,5.70
2017-09-11T03:24:15.715Z,3.43
2017-09-11T03:26:43.299Z,6.23
2017-09-11T03:29:10.963Z,8.03
2017-09-11T03:31:38.504Z,5.13
2017-09-11T03:34:06.514Z,6.40
2017-09-11T03:36:34.152Z,6.37
2017-09-11T03:39:01.738Z,4.13
2017-09-11T03:41:29.343Z,4.60
2017-09-11T03:43:57.667Z,5.77
2017-09-11T03:46:25.681Z,8.17
2017-09-11T03:48:53.238Z,4.50
2017-09-11T03:51:20.778Z,4.73
2017-09-11T03:53:48.358Z,4.80
2017-09-11T03:56:15.929Z,7.13
2017-09-11T03:58:44.003Z,5.97
2017-09-11T04:01:12.311Z,7.10
2017-09-11T04:03:39.991Z,6.33
2017-09-11T04:06:07.610Z,6.83
2017-09-11T04:08:35.208Z,5.00
2017-09-11T04:11:03.128Z,6.97
2017-09-11T04:13:30.691Z,6.23
2017-09-11T04:15:58.275Z,4.30
2017-09-11T04:18:25.899Z,9.60
2017-09-11T04:20:54.207Z,8.53
2017-09-11T04:23:22.058Z,7.27
2017-09-11T04:25:49.604Z,7.10
2017-09-11T04:28:17.162Z,16.73
2017-09-11T04:30:45.522Z,9.93
2017-09-11T04:33:13.075Z,12.10
2017-09-11T04:35:41.137Z,7.73
2017-09-11T04:38:08.710Z,12.87
2017-09-11T04:40:36.360Z,5.80
2017-09-11T04:43:03.972Z,13.27
2017-09-11T04:45:31.531Z,15.17
2017-09-11T04:47:59.473Z,10.80
2017-09-11T04:50:27.819Z,9.67
2017-09-11T04:52:55.417Z,14.60
2017-09-11T04:55:23.766Z,16.70
2017-09-11T04:57:51.324Z,13.73
2017-09-11T05:00:19.374Z,15.23
2017-09-11T05:02:47.074Z,13.33
2017-09-11T05:05:15.406Z,13.50
2017-09-11T05:07:42.992Z,8.83
2017-09-11T05:10:10.553Z,8.60
2017-09-11T05:12:38.517Z,8.37
2017-09-11T05:15:06.120Z,6.57
2017-09-11T05:17:33.700Z,8.23
2017-09-11T05:20:01.551Z,7.77
2017-09-11T05:22:29.143Z,9.63
2017-09-11T05:24:56.788Z,8.90
2017-09-11T05:27:24.593Z,7.97
2017-09-11T05:29:52.512Z,6.20
2017-09-11T05:32:20.075Z,6.70
2017-09-11T05:34:47.658Z,8.33
2017-09-11T05:37:15.281Z,15.97
2017-09-11T05:39:42.876Z,8.37
2017-09-11T05:42:10.884Z,12.17
2017-09-11T05:44:38.497Z,15.37
2017-09-11T05:47:06.048Z,9.07
2017-09-11T05:49:34.026Z,18.03
2017-09-11T05:52:01.595Z,12.07
2017-09-11T05:54:29.611Z,11.57
2017-09-11T05:56:57.927Z,14.83
2017-09-11T05:59:25.521Z,14.50
2017-09-11T06:01:53.240Z,17.90
2017-09-11T06:04:21.135Z,9.53
2017-09-11T06:06:48.747Z,11.70
2017-09-11T06:09:17.089Z,10.30
2017-09-11T06:11:44.686Z,16.00
2017-09-11T06:14:13.027Z,14.07
2017-09-11T06:16:41.344Z,10.43
2017-09-11T06:19:08.903Z,12.07
2017-09-11T06:21:36.455Z,10.50
2017-09-11T06:24:04.046Z,9.30
2017-09-11T06:26:31.617Z,9.47
2017-09-11T06:28:59.712Z,12.90
2017-09-11T06:31:27.270Z,20.00
2017-09-11T06:33:54.826Z,14.33
2017-09-11T06:36:22.480Z,15.43
2017-09-11T06:38:50.054Z,18.03
2017-09-11T06:41:18.038Z,20.07
2017-09-11T06:43:46.666Z,14.90
2017-09-11T06:46:14.238Z,11.50
2017-09-11T06:48:41.834Z,14.40
2017-09-11T06:51:09.408Z,13.40
2017-09-11T06:53:37.380Z,14.57
2017-09-11T06:56:04.937Z,11.60
2017-09-11T06:58:32.547Z,13.50
2017-09-11T07:01:00.146Z,15.27
2017-09-11T07:03:27.687Z,8.57
2017-09-11T07:05:56.072Z,11.87
2017-09-11T07:08:23.628Z,13.47
2017-09-11T07:10:51.234Z,10.20
2017-09-11T07:13:24.151Z,15.17
2017-09-11T07:15:52.223Z,10.43
2017-09-11T07:18:20.123Z,11.03
2017-09-11T07:20:47.684Z,10.70
2017-09-11T07:23:15.251Z,14.00
2017-09-11T07:25:42.894Z,9.27
2017-09-11T07:28:10.482Z,9.63
2017-09-11T07:30:38.450Z,11.37
2017-09-11T07:33:07.044Z,6.60
2017-09-11T07:35:34.634Z,5.23
2017-09-11T07:38:02.243Z,2.47
2017-09-11T07:40:30.583Z,4.00
2017-09-11T07:42:58.450Z,7.43
2017-09-11T07:45:26.001Z,2.10
2017-09-11T07:47:53.647Z,4.40
2017-09-11T07:50:21.232Z,3.57
2017-09-11T07:52:48.830Z,1.80
2017-09-11T07:55:16.833Z,1.67
2017-09-11T07:57:44.408Z,1.93
2017-09-11T08:00:12.003Z,2.77
2017-09-11T08:02:39.595Z,2.07
2017-09-11T08:05:07.159Z,3.50
2017-09-11T08:07:35.819Z,2.20
2017-09-11T08:10:03.406Z,3.10
2017-09-11T08:12:30.967Z,4.23
2017-09-11T08:14:58.645Z,3.50
2017-09-11T08:17:26.282Z,4.40
2017-09-11T08:19:54.348Z,2.87
2017-09-11T08:22:22.738Z,7.23
2017-09-11T08:24:50.293Z,2.40
2017-09-11T08:27:18.687Z,4.83
2017-09-11T08:29:46.261Z,4.20
2017-09-11T08:32:14.317Z,6.23
2017-09-11T08:34:41.903Z,4.50
2017-09-11T08:37:09.458Z,6.03
2017-09-11T08:39:37.071Z,2.20
2017-09-11T08:42:04.624Z,5.93
2017-09-11T08:44:32.536Z,4.83
2017-09-11T08:47:00.160Z,3.77
2017-09-11T08:49:27.714Z,4.13
2017-09-11T08:51:55.336Z,4.20
2017-09-11T08:54:22.920Z,4.00
2017-09-11T08:56:51.172Z,4.33
2017-09-11T08:59:18.739Z,8.30
2017-09-11T09:01:46.299Z,3.67
2017-09-11T09:04:13.955Z,4.63
2017-09-11T09:06:41.604Z,45.70
2017-09-11T09:09:09.550Z,14.90
2017-09-11T09:11:37.111Z,14.40
2017-09-11T09:14:04.742Z,8.67
2017-09-11T09:16:32.343Z,5.03
2017-09-11T09:18:59.931Z,2.63
2017-09-11T09:21:27.896Z,5.93
2017-09-11T09:23:55.426Z,8.60
2017-09-11T09:26:22.975Z,3.13
2017-09-11T09:28:50.574Z,4.30
2017-09-11T09:31:18.159Z,4.60
2017-09-11T09:33:46.074Z,2.40
2017-09-11T09:36:13.678Z,10.33
2017-09-11T09:38:41.243Z,2.23
2017-09-11T09:41:09.012Z,8.30
2017-09-11T09:43:36.559Z,5.00
2017-09-11T09:46:04.546Z,1.83
2017-09-11T09:48:32.126Z,3.70
2017-09-11T09:50:59.938Z,3.10
2017-09-11T09:53:27.871Z,4.07
2017-09-11T09:55:55.439Z,2.30
2017-09-11T09:58:24.294Z,3.47
2017-09-11T10:00:51.852Z,4.03
2017-09-11T10:03:19.450Z,2.40
2017-09-11T10:05:47.314Z,6.60
2017-09-11T10:08:14.901Z,2.47
2017-09-11T10:10:42.790Z,1.90
2017-09-11T10:13:10.332Z,5.27
2017-09-11T10:15:37.905Z,3.00
2017-09-11T10:18:05.496Z,2.43
2017-09-11T10:20:33.057Z,1.50
2017-09-11T10:23:01.194Z,2.20
2017-09-11T10:25:28.981Z,1.70
2017-09-11T10:27:56.640Z,3.20
2017-09-11T10:30:25.040Z,4.67
2017-09-11T10:32:52.632Z,2.07
2017-09-11T10:35:20.521Z,2.50
2017-09-11T10:37:49.064Z,4.90
2017-09-11T10:40:16.649Z,2.00
2017-09-11T10:42:45.150Z,2.10
2017-09-11T10:45:12.712Z,4.50
2017-09-11T10:47:40.802Z,2.27
2017-09-11T10:50:08.720Z,4.00
2017-09-11T10:52:36.363Z,2.80
2017-09-11T10:55:03.985Z,2.47
2017-09-11T10:57:31.538Z,4.87
2017-09-11T11:00:00.361Z,1.67
2017-09-11T11:02:28.179Z,2.10
2017-09-11T11:04:55.760Z,5.20
2017-09-11T11:07:23.401Z,2.63
2017-09-11T11:09:50.965Z,1.60
2017-09-11T11:12:18.863Z,3.20
2017-09-11T11:14:46.468Z,8.07
2017-09-11T11:17:14.230Z,1.77
2017-09-11T11:19:41.816Z,1.73
2017-09-11T11:22:09.383Z,3.53
2017-09-11T11:24:37.359Z,1.87
2017-09-11T11:27:04.911Z,2.87
2017-09-11T11:29:32.481Z,3.50
2017-09-11T11:32:00.095Z,3.80
2017-09-11T11:34:27.681Z,1.80
2017-09-11T11:36:55.665Z,4.00
2017-09-11T11:39:23.232Z,1.23
2017-09-11T11:41:50.817Z,4.00
2017-09-11T11:44:19.195Z,1.60
2017-09-11T11:46:46.796Z,4.57
2017-09-11T11:49:14.641Z,2.10
2017-09-11T11:51:42.203Z,2.40
2017-09-11T11:54:09.964Z,2.57
2017-09-11T11:56:37.934Z,1.30
2017-09-11T11:59:05.829Z,4.17
2017-09-11T12:01:33.723Z,5.37
2017-09-11T12:04:02.070Z,2.90
2017-09-11T12:06:29.650Z,1.30
2017-09-11T12:08:57.238Z,7.60
2017-09-11T12:11:24.795Z,2.33
2017-09-11T12:13:53.095Z,2.70
2017-09-11T12:16:20.664Z,2.10
2017-09-11T12:18:48.274Z,2.43
2017-09-11T12:21:15.871Z,7.70
2017-09-11T12:23:44.173Z,4.73
2017-09-11T12:26:12.202Z,2.33
2017-09-11T12:28:40.562Z,1.50
2017-09-11T12:31:08.114Z,3.63
2017-09-11T12:33:35.752Z,1.63
2017-09-11T12:36:03.292Z,2.83
2017-09-11T12:38:31.317Z,5.37
2017-09-11T12:40:58.870Z,5.47
2017-09-11T12:43:26.602Z,1.27
2017-09-11T12:45:54.202Z,2.03
2017-09-11T12:48:21.755Z,2.30
2017-09-11T12:50:49.867Z,4.70
2017-09-11T12:53:18.195Z,4.53
2017-09-11T12:55:45.783Z,3.07
2017-09-11T12:58:13.375Z,1.90
2017-09-11T13:00:42.010Z,3.13
2017-09-11T13:03:09.979Z,4.77
2017-09-11T13:05:37.564Z,1.23
2017-09-11T13:08:05.150Z,6.97
2017-09-11T13:10:32.787Z,2.03
2017-09-11T13:13:01.115Z,2.60
2017-09-11T13:15:29.067Z,3.93
2017-09-11T13:17:56.619Z,2.33
2017-09-11T13:20:24.179Z,6.90
2017-09-11T13:22:52.014Z,3.00
2017-09-11T13:25:19.575Z,3.10
2017-09-11T13:27:48.228Z,1.73
2017-09-11T13:30:15.787Z,2.80
2017-09-11T13:32:43.358Z,1.80
2017-09-11T13:35:10.951Z,4.50
2017-09-11T13:37:38.570Z,3.90
2017-09-11T13:40:06.541Z,3.40
2017-09-11T13:42:34.107Z,1.83
2017-09-11T13:45:01.661Z,2.30
2017-09-11T13:47:29.251Z,5.57
2017-09-11T13:49:56.838Z,3.23
2017-09-11T13:52:24.867Z,3.87
2017-09-11T13:54:52.451Z,3.93
2017-09-11T13:57:20.071Z,2.70
2017-09-11T13:59:47.670Z,2.70
2017-09-11T14:02:16.045Z,5.70
2017-09-11T14:04:43.980Z,2.40
2017-09-11T14:07:11.558Z,4.90
2017-09-11T14:09:39.159Z,2.50
2017-09-11T14:12:06.798Z,4.33
2017-09-11T14:14:34.393Z,7.30
2017-09-11T14:17:02.301Z,7.30
2017-09-11T14:19:29.856Z,3.47
2017-09-11T14:21:57.474Z,3.50
2017-09-11T14:24:25.104Z,2.33
2017-09-11T14:26:53.511Z,3.53
2017-09-11T14:29:21.591Z,10.33
2017-09-11T14:31:49.232Z,4.97
2017-09-11T14:34:16.788Z,5.60
2017-09-11T14:36:45.156Z,3.23
2017-09-11T14:39:12.737Z,2.67
2017-09-11T14:41:40.776Z,5.30
2017-09-11T14:44:09.105Z,7.17
2017-09-11T14:46:36.714Z,2.23
2017-09-11T14:49:04.318Z,2.67
2017-09-11T14:51:31.888Z,2.83
2017-09-11T14:53:59.878Z,7.90
2017-09-11T14:56:27.443Z,7.33
2017-09-11T14:58:55.003Z,8.27
2017-09-11T15:01:22.608Z,4.20
2017-09-11T15:03:50.163Z,2.40
2017-09-11T15:06:18.227Z,5.90
2017-09-11T15:08:46.551Z,3.50
2017-09-11T15:11:14.096Z,3.80
2017-09-11T15:13:41.768Z,2.30
2017-09-11T15:16:09.490Z,3.03
2017-09-11T15:18:38.153Z,4.90
2017-09-11T15:21:05.679Z,3.30
2017-09-11T15:23:33.280Z,6.37
2017-09-11T15:26:00.862Z,7.37
2017-09-11T15:28:28.562Z,6.03
2017-09-11T15:30:56.518Z,2.00
2017-09-11T15:33:24.078Z,4.13
2017-09-11T15:35:51.629Z,5.03
2017-09-11T15:38:19.244Z,3.33
2017-09-11T15:40:47.581Z,5.10
2017-09-11T15:43:15.563Z,9.70
2017-09-11T15:45:43.119Z,3.83
2017-09-11T15:48:10.676Z,8.70
2017-09-11T15:50:38.359Z,13.03
2017-09-11T15:53:05.957Z,3.93
2017-09-11T15:55:33.882Z,10.40
2017-09-11T15:58:01.476Z,2.60
2017-09-11T16:00:29.254Z,2.57
2017-09-11T16:02:56.846Z,6.30
2017-09-11T16:05:24.412Z,6.03
2017-09-11T16:07:52.440Z,4.50
2017-09-11T16:10:20.016Z,1.70
2017-09-11T16:12:47.573Z,2.17
2017-09-11T16:15:15.168Z,4.80
2017-09-11T16:17:42.780Z,5.43
2017-09-11T16:20:10.725Z,3.00
2017-09-11T16:22:39.035Z,5.90
2017-09-11T16:25:06.639Z,3.70
2017-09-11T16:27:34.224Z,0.80
2017-09-11T16:30:01.807Z,1.30
2017-09-11T16:32:30.443Z,1.67
2017-09-11T16:34:58.645Z,0.80
2017-09-11T16:37:26.227Z,2.40
2017-09-11T16:39:54.622Z,1.47
2017-09-11T16:42:22.185Z,0.90
2017-09-11T16:44:50.082Z,4.23
2017-09-11T16:47:17.650Z,1.03
2017-09-11T16:49:45.180Z,3.53
2017-09-11T16:52:12.784Z,1.00
2017-09-11T16:54:40.342Z,4.33
2017-09-11T16:57:08.304Z,2.40
2017-09-11T16:59:35.877Z,1.10
2017-09-11T17:02:03.467Z,2.03
2017-09-11T17:04:31.059Z,1.20
2017-09-11T17:06:58.624Z,1.27
2017-09-11T17:09:26.630Z,3.10
2017-09-11T17:11:54.187Z,1.50
2017-09-11T17:14:21.745Z,1.37
2017-09-11T17:16:49.858Z,2.70
2017-09-11T17:19:17.504Z,4.00
2017-09-11T17:21:45.527Z,1.13
2017-09-11T17:24:13.662Z,1.33
2017-09-11T17:26:41.234Z,2.27
2017-09-11T17:29:08.840Z,1.67
2017-09-11T17:32:07.779Z,2.07
2017-09-11T17:34:35.779Z,1.90
2017-09-11T17:37:03.492Z,1.67
2017-09-11T17:39:31.816Z,2.50
2017-09-11T17:41:59.470Z,3.33
2017-09-11T17:44:27.035Z,4.37
2017-09-11T17:46:54.959Z,2.53
2017-09-11T17:49:23.279Z,2.10
2017-09-11T17:51:50.904Z,1.77
2017-09-11T17:54:18.552Z,6.90
2017-09-11T17:56:46.949Z,2.17
2017-09-11T17:59:14.895Z,3.13
2017-09-11T18:01:42.696Z,2.30
2017-09-11T18:04:10.278Z,2.00
2017-09-11T18:06:37.921Z,7.70
2017-09-11T18:09:05.512Z,2.03
2017-09-11T18:11:33.372Z,2.80
2017-09-11T18:14:00.931Z,4.30
2017-09-11T18:16:28.521Z,2.77
2017-09-11T18:18:56.147Z,1.43
2017-09-11T18:21:23.711Z,1.43
2017-09-11T18:23:51.693Z,3.40
2017-09-11T18:26:19.243Z,4.77
2017-09-11T18:28:46.899Z,4.60
2017-09-11T18:31:14.500Z,6.03
2017-09-11T18:33:42.869Z,7.10
2017-09-11T18:36:10.824Z,6.67
2017-09-11T18:38:38.457Z,5.00
2017-09-11T18:41:06.087Z,6.23
2017-09-11T18:43:33.707Z,7.87
2017-09-11T18:46:01.283Z,5.17
2017-09-11T18:48:29.910Z,3.60
2017-09-11T18:50:57.489Z,3.40
2017-09-11T18:53:25.048Z,3.43
2017-09-11T18:55:52.679Z,17.03
2017-09-11T18:58:20.256Z,3.20
2017-09-11T19:00:48.503Z,3.87
2017-09-11T19:03:16.075Z,3.90
2017-09-11T19:05:43.750Z,3.33
2017-09-11T19:08:11.524Z,3.57
2017-09-11T19:10:40.248Z,5.73
2017-09-11T19:13:08.205Z,7.17
2017-09-11T19:15:35.751Z,3.67
2017-09-11T19:18:03.308Z,4.07
2017-09-11T19:20:30.955Z,3.00
2017-09-11T19:22:58.712Z,4.70
2017-09-11T19:25:26.383Z,1.90
2017-09-11T19:27:54.699Z,2.47
2017-09-11T19:30:22.612Z,7.80
2017-09-11T19:32:50.215Z,2.03
2017-09-11T19:35:17.768Z,4.13
2017-09-11T19:40:19.620Z,2.57
2017-09-11T19:42:47.526Z,3.00
2017-09-11T19:45:15.092Z,1.63
2017-09-11T19:47:42.691Z,2.20
2017-09-11T19:50:10.600Z,2.83
2017-09-11T19:52:38.275Z,2.27
2017-09-11T19:55:06.251Z,1.97
2017-09-11T19:57:33.821Z,1.60
2017-09-11T20:00:01.435Z,2.80
2017-09-11T20:02:29.231Z,5.83
2017-09-11T20:04:56.795Z,2.53
2017-09-11T20:07:26.395Z,1.67
2017-09-11T20:09:54.029Z,1.40
2017-09-11T20:12:21.587Z,2.83
2017-09-11T20:14:49.220Z,3.33
2017-09-11T20:17:16.845Z,5.70
2017-09-11T20:19:44.965Z,1.93
2017-09-11T20:22:12.714Z,1.70
2017-09-11T20:24:40.340Z,3.70
2017-09-11T20:27:08.182Z,2.60
2017-09-11T20:29:35.747Z,2.83
2017-09-11T20:32:03.889Z,2.13
2017-09-11T20:34:31.471Z,3.53
2017-09-11T20:36:59.051Z,1.80
2017-09-11T20:39:26.699Z,3.53
2017-09-11T20:41:54.288Z,1.43
2017-09-11T20:44:22.984Z,2.00
2017-09-11T20:46:51.353Z,4.93
2017-09-11T20:49:18.952Z,1.37
2017-09-11T20:51:46.560Z,1.30
2017-09-11T20:54:14.132Z,1.63
2017-09-11T20:56:42.652Z,1.43
2017-09-11T20:59:10.251Z,1.60
2017-09-11T21:01:37.811Z,4.93
2017-09-11T21:04:05.476Z,3.70
2017-09-11T21:06:33.035Z,4.10
2017-09-11T21:09:01.218Z,5.70
2017-09-11T21:11:28.810Z,3.20
2017-09-11T21:13:56.448Z,2.53
2017-09-11T21:16:24.100Z,3.27
2017-09-11T21:18:51.671Z,3.20
2017-09-11T21:21:20.345Z,3.40
2017-09-11T21:23:47.903Z,2.90
2017-09-11T21:26:15.481Z,3.23
2017-09-11T21:28:43.857Z,2.07
2017-09-11T21:31:11.410Z,2.40
2017-09-11T21:33:39.291Z,2.70
2017-09-11T21:36:07.618Z,2.37
2017-09-11T21:38:35.179Z,4.37
2017-09-11T21:41:02.801Z,3.40
2017-09-11T21:43:30.534Z,3.13
2017-09-11T21:45:58.638Z,6.40
2017-09-11T21:48:27.075Z,3.70
2017-09-11T21:50:54.622Z,8.00
2017-09-11T21:53:22.216Z,4.67
2017-09-11T21:55:50.546Z,3.00
2017-09-11T21:58:18.425Z,4.87
2017-09-11T22:00:46.013Z,2.73
2017-09-11T22:03:13.576Z,1.07
2017-09-11T22:05:41.213Z,3.27
2017-09-11T22:08:08.806Z,2.10
2017-09-11T22:10:37.482Z,5.70
2017-09-11T22:13:05.869Z,3.43
2017-09-11T22:15:33.413Z,2.30
2017-09-11T22:18:01.035Z,5.20
2017-09-11T22:20:28.644Z,11.13
2017-09-11T22:22:56.601Z,6.83
2017-09-11T22:25:24.226Z,3.43
2017-09-11T22:27:51.962Z,4.27
2017-09-11T22:30:20.350Z,4.20
2017-09-11T22:32:47.907Z,4.27
2017-09-11T22:35:15.957Z,2.87
2017-09-11T22:37:44.309Z,9.03
2017-09-11T22:40:11.872Z,3.60
2017-09-11T22:42:39.496Z,7.13
2017-09-11T22:45:07.092Z,2.73
2017-09-11T22:47:35.058Z,3.50
2017-09-11T22:50:02.752Z,1.73
2017-09-11T22:52:31.073Z,2.00
2017-09-11T22:54:58.762Z,5.47
2017-09-11T22:57:26.340Z,4.47
2017-09-11T22:59:54.949Z,2.87
2017-09-11T23:02:22.543Z,4.17
2017-09-11T23:04:50.106Z,4.00
2017-09-11T23:07:17.715Z,2.40
2017-09-11T23:09:45.275Z,5.10
2017-09-11T23:12:13.921Z,3.90
2017-09-11T23:14:41.505Z,6.47
2017-09-11T23:17:09.085Z,1.77
2017-09-11T23:19:37.445Z,3.20
2017-09-11T23:22:05.043Z,2.43
2017-09-11T23:24:32.914Z,2.60
2017-09-11T23:27:00.521Z,3.23
2017-09-11T23:29:28.887Z,9.40
2017-09-11T23:31:56.480Z,6.53
2017-09-11T23:34:24.799Z,4.03
2017-09-11T23:36:52.816Z,2.10
2017-09-11T23:39:21.175Z,5.90
2017-09-11T23:41:48.731Z,5.87
2017-09-11T23:44:16.324Z,3.30
2017-09-11T23:46:43.880Z,5.07
2017-09-11T23:49:11.819Z,11.50
2017-09-11T23:51:39.379Z,5.30
2017-09-11T23:54:06.937Z,6.20
2017-09-11T23:56:34.679Z,5.77
2017-09-11T23:59:02.273Z,3.53
